Pagosa Lakes, Colorado
Current Conditions -  °F | °C
As of 3:15 AM on Wednesday 26 Nov 2014 (Local Time) from KPSO Reporting Station
Clear Clear  
Wind Chill: 17°   Ceiling: Unl
Heat Index: 17°   Visibility: 10mi
Dew Point:   Wind: 0mph
Humidity: 72%   Direction: NA
Pressure: 30.32"   Gusts: NA
Location:  37.1765°N, 106.896°W
Report Text: KPSO 261015Z AUTO 00000KT 10SM CLR M08/M13 A3032 RMK AO2 T10841126
Loading
Personal Weather Stations






























Interactive Weather Map New forecast layout! Learn more

10-Day Weather Forecast

Advertisements
Track Severe Weather on mobile